createdAt,value
2023-02-06T00:01:09.326Z,11.25
2023-02-06T00:03:42.373Z,10.30
2023-02-06T00:06:13.064Z,10.30
2023-02-06T00:08:39.792Z,11.57
2023-02-06T00:11:12.799Z,12.20
2023-02-06T00:13:42.077Z,11.65
2023-02-06T00:16:28.276Z,10.32
2023-02-06T00:18:57.896Z,10.38
2023-02-06T00:21:31.129Z,11.37
2023-02-06T00:24:16.063Z,13.02
2023-02-06T00:26:44.691Z,11.65
2023-02-06T00:29:14.015Z,11.65
2023-02-06T00:31:40.715Z,10.80
2023-02-06T00:34:10.455Z,10.17
2023-02-06T00:36:37.595Z,11.20
2023-02-06T00:39:11.266Z,11.73
2023-02-06T00:41:38.710Z,11.48
2023-02-06T00:44:08.636Z,11.50
2023-02-06T00:46:40.712Z,11.80
2023-02-06T00:49:07.520Z,11.82
2023-02-06T00:51:36.206Z,12.35
2023-02-06T00:54:05.461Z,12.95
2023-02-06T00:56:32.515Z,10.95
2023-02-06T00:59:01.059Z,11.70
2023-02-06T01:01:30.615Z,11.02
2023-02-06T01:03:57.416Z,11.50
2023-02-06T01:06:24.337Z,10.10
2023-02-06T01:08:51.436Z,10.82
2023-02-06T01:11:22.627Z,11.07
2023-02-06T01:13:50.217Z,11.07
2023-02-06T01:16:20.788Z,10.75
2023-02-06T01:18:53.296Z,11.25
2023-02-06T01:21:25.216Z,10.35
2023-02-06T01:23:54.156Z,11.13
2023-02-06T01:26:34.656Z,10.20
2023-02-06T01:29:06.737Z,9.43
2023-02-06T01:31:33.483Z,9.82
2023-02-06T01:34:02.008Z,10.18
2023-02-06T01:36:29.206Z,10.90
2023-02-06T01:38:56.279Z,10.90
2023-02-06T01:41:24.267Z,11.00
2023-02-06T01:44:18.277Z,9.82
2023-02-06T01:46:47.822Z,10.05
2023-02-06T01:49:35.764Z,9.77
2023-02-06T01:52:14.556Z,8.48
2023-02-06T01:54:41.965Z,9.30
2023-02-06T01:57:11.829Z,9.57
2023-02-06T01:59:43.038Z,9.32
2023-02-06T02:02:10.168Z,9.13
2023-02-06T02:04:39.246Z,9.70
2023-02-06T02:07:37.476Z,9.20
2023-02-06T02:10:05.474Z,10.20
2023-02-06T02:12:32.177Z,9.55
2023-02-06T02:14:59.336Z,9.37
2023-02-06T02:18:02.537Z,8.77
2023-02-06T02:20:31.980Z,8.68
2023-02-06T02:23:18.652Z,7.63
2023-02-06T02:26:15.090Z,9.45
2023-02-06T02:32:33.249Z,9.10
2023-02-06T02:35:35.838Z,8.85
2023-02-06T02:38:45.561Z,7.72
2023-02-06T02:41:46.088Z,7.28
2023-02-06T02:44:19.559Z,8.07
2023-02-06T02:46:50.648Z,8.23
2023-02-06T02:49:58.288Z,9.52
2023-02-06T02:52:26.814Z,8.43
2023-02-06T02:54:54.366Z,9.25
2023-02-06T02:57:31.828Z,8.97
2023-02-06T03:00:00.749Z,8.63
2023-02-06T03:02:35.005Z,8.93
2023-02-06T03:05:11.440Z,8.88
2023-02-06T03:08:14.879Z,7.90
2023-02-06T03:10:52.201Z,8.37
2023-02-06T03:13:51.139Z,9.52
2023-02-06T03:16:26.231Z,7.82
2023-02-06T03:19:02.930Z,7.65
2023-02-06T03:21:32.281Z,9.07
2023-02-06T03:24:03.129Z,8.10
2023-02-06T03:26:32.342Z,8.10
2023-02-06T03:29:02.384Z,8.57
2023-02-06T03:31:35.160Z,8.57
2023-02-06T03:34:18.659Z,8.82
2023-02-06T03:36:45.411Z,9.33
2023-02-06T03:39:12.816Z,8.50
2023-02-06T03:41:41.076Z,8.60
2023-02-06T03:44:12.279Z,8.88
2023-02-06T03:46:42.220Z,8.35
2023-02-06T03:49:14.066Z,9.27
2023-02-06T03:51:48.713Z,8.70
2023-02-06T03:54:19.021Z,8.98
2023-02-06T03:57:03.171Z,7.97
2023-02-06T03:59:31.191Z,8.82
2023-02-06T04:02:00.987Z,8.60
2023-02-06T04:04:39.573Z,8.32
2023-02-06T04:07:17.617Z,8.23
2023-02-06T04:09:44.309Z,7.90
2023-02-06T04:12:11.763Z,7.70
2023-02-06T04:14:38.836Z,7.83
2023-02-06T04:17:06.076Z,8.15
2023-02-06T04:19:33.198Z,7.35
2023-02-06T04:21:59.921Z,7.80
2023-02-06T04:24:26.616Z,8.15
2023-02-06T04:26:55.641Z,7.90
2023-02-06T04:29:22.340Z,8.52
2023-02-06T04:31:48.890Z,8.55
2023-02-06T04:34:15.486Z,7.95
2023-02-06T04:36:42.147Z,7.88
2023-02-06T04:39:09.064Z,7.93
2023-02-06T04:41:35.904Z,7.95
2023-02-06T04:44:02.475Z,7.88
2023-02-06T04:46:29.164Z,8.07
2023-02-06T04:48:55.892Z,7.70
2023-02-06T04:51:22.745Z,8.30
2023-02-06T04:53:49.399Z,7.97
2023-02-06T04:56:16.097Z,8.07
2023-02-06T04:58:42.789Z,7.60
2023-02-06T05:01:09.698Z,7.70
2023-02-06T05:03:36.420Z,8.07
2023-02-06T05:06:04.760Z,8.80
2023-02-06T05:08:39.131Z,8.15
2023-02-06T05:11:06.182Z,8.50
2023-02-06T05:13:34.246Z,7.80
2023-02-06T05:16:11.926Z,8.00
2023-02-06T05:18:39.261Z,9.13
2023-02-06T05:21:06.382Z,7.82
2023-02-06T05:23:33.261Z,8.05
2023-02-06T05:26:00.769Z,7.13
2023-02-06T05:28:29.853Z,8.03
2023-02-06T05:30:57.210Z,7.68
2023-02-06T05:33:24.172Z,8.30
2023-02-06T05:35:50.710Z,7.63
2023-02-06T05:38:17.645Z,8.30
2023-02-06T05:40:44.704Z,8.37
2023-02-06T05:43:11.717Z,8.13
2023-02-06T05:45:38.509Z,7.13
2023-02-06T05:48:05.486Z,9.18
2023-02-06T05:50:34.382Z,7.60
2023-02-06T05:53:01.066Z,8.37
2023-02-06T05:55:27.890Z,8.55
2023-02-06T05:57:54.438Z,9.48
2023-02-06T06:00:35.019Z,9.65
2023-02-06T06:03:01.715Z,9.77
2023-02-06T06:05:29.442Z,9.97
2023-02-06T06:07:56.377Z,9.57
2023-02-06T06:10:29.305Z,9.85
2023-02-06T06:13:00.628Z,9.45
2023-02-06T06:15:27.514Z,9.57
2023-02-06T06:17:58.633Z,9.03
2023-02-06T06:20:25.642Z,8.95
2023-02-06T06:22:52.576Z,9.77
2023-02-06T06:25:19.317Z,9.57
2023-02-06T06:27:45.957Z,10.30
2023-02-06T06:30:12.979Z,8.67
2023-02-06T06:32:39.750Z,8.70
2023-02-06T06:35:07.733Z,9.45
2023-02-06T06:37:40.656Z,9.95
2023-02-06T06:40:10.359Z,9.05
2023-02-06T06:42:37.402Z,8.87
2023-02-06T06:45:08.243Z,8.60
2023-02-06T06:47:43.422Z,9.43
2023-02-06T06:50:46.416Z,8.77
2023-02-06T06:53:22.153Z,8.90
2023-02-06T06:56:27.042Z,8.53
2023-02-06T06:58:58.296Z,8.73
2023-02-06T07:01:33.671Z,8.85
2023-02-06T07:04:09.904Z,8.52
2023-02-06T07:10:19.580Z,8.67
2023-02-06T07:13:01.623Z,8.43
2023-02-06T07:21:26.887Z,7.88
2023-02-06T07:24:33.128Z,7.73
2023-02-06T07:27:05.154Z,9.02
2023-02-06T07:29:41.980Z,8.13
2023-02-06T09:33:44.377Z,7.93
2023-02-06T09:36:23.502Z,7.43
2023-02-06T09:39:05.487Z,7.75
2023-02-06T10:07:25.064Z,4.07
2023-02-06T10:13:57.311Z,5.82
2023-02-06T10:16:26.837Z,6.18
2023-02-06T10:19:21.307Z,5.53
2023-02-06T10:22:22.529Z,6.43
2023-02-06T10:25:29.682Z,7.03
2023-02-06T10:28:25.421Z,6.85
2023-02-06T10:31:21.757Z,6.22
2023-02-06T10:33:57.507Z,7.40
2023-02-06T10:37:04.649Z,6.83
2023-02-06T10:40:06.722Z,7.05
2023-02-06T10:42:54.808Z,8.13
2023-02-06T10:46:23.084Z,7.03
2023-02-06T10:49:02.728Z,5.70
2023-02-06T10:51:38.880Z,6.00
2023-02-06T10:54:15.932Z,5.70
2023-02-06T10:56:52.168Z,6.40
2023-02-06T10:59:37.488Z,6.70
2023-02-06T11:02:34.470Z,6.93
2023-02-06T11:05:08.451Z,5.93
2023-02-06T11:07:54.200Z,6.07
2023-02-06T11:10:28.536Z,6.25
2023-02-06T11:13:16.541Z,6.72
2023-02-06T11:16:17.141Z,6.25
2023-02-06T11:18:51.409Z,6.17
2023-02-06T11:22:01.035Z,4.00
2023-02-06T11:24:27.716Z,3.50
2023-02-06T11:27:05.016Z,3.40
2023-02-06T11:30:02.622Z,2.40
2023-02-06T11:33:09.160Z,3.53
2023-02-06T11:38:55.024Z,3.42
2023-02-06T11:41:24.060Z,3.58
2023-02-06T11:43:58.654Z,4.47
2023-02-06T11:46:34.242Z,3.60
2023-02-06T11:49:11.523Z,2.83
2023-02-06T11:51:51.896Z,2.40
2023-02-06T11:54:41.632Z,2.80
2023-02-06T11:57:26.646Z,2.90
2023-02-06T12:00:01.158Z,3.27
2023-02-06T12:02:34.241Z,2.92
2023-02-06T12:05:25.334Z,3.22
2023-02-06T12:08:05.066Z,3.28
2023-02-06T12:10:55.107Z,3.03
2023-02-06T12:13:27.881Z,2.37
2023-02-06T12:15:58.716Z,3.00
2023-02-06T12:18:41.412Z,2.50
2023-02-06T12:21:24.544Z,2.33
2023-02-06T12:24:02.174Z,2.05
2023-02-06T12:26:34.194Z,1.97
2023-02-06T12:29:23.131Z,2.13
2023-02-06T12:32:04.730Z,1.45
2023-02-06T12:34:53.575Z,1.92
2023-02-06T12:37:39.814Z,1.80
2023-02-06T12:40:27.060Z,1.53
2023-02-06T12:43:01.692Z,2.00
2023-02-06T12:45:57.565Z,1.50
2023-02-06T12:48:44.027Z,1.88
2023-02-06T12:51:42.817Z,1.30
2023-02-06T12:54:21.993Z,1.53
2023-02-06T12:57:17.334Z,1.80
2023-02-06T13:00:02.719Z,1.60
2023-02-06T13:03:01.178Z,1.63
2023-02-06T13:05:37.387Z,1.90
2023-02-06T13:08:09.994Z,1.97
2023-02-06T13:10:37.879Z,1.80
2023-02-06T13:13:05.491Z,1.67
2023-02-06T13:15:37.863Z,1.30
2023-02-06T13:18:37.012Z,1.30
2023-02-06T13:21:32.461Z,1.50
2023-02-06T13:24:15.641Z,1.30
2023-02-06T13:26:56.573Z,1.50
2023-02-06T13:29:30.520Z,1.15
2023-02-06T13:32:17.826Z,1.65
2023-02-06T13:34:53.979Z,2.13
2023-02-06T13:37:44.945Z,2.08
2023-02-06T13:40:24.417Z,1.65
2023-02-06T13:43:19.004Z,3.03
2023-02-06T13:46:04.472Z,1.05
2023-02-06T13:48:33.999Z,1.50
2023-02-06T13:51:33.301Z,1.13
2023-02-06T13:54:12.534Z,1.42
2023-02-06T13:56:42.178Z,1.25
2023-02-06T13:59:21.112Z,1.33
2023-02-06T14:01:51.019Z,1.57
2023-02-06T14:04:24.880Z,2.05
2023-02-06T14:07:31.183Z,0.95
2023-02-06T14:10:06.815Z,1.65
2023-02-06T14:12:54.882Z,1.38
2023-02-06T14:15:29.117Z,1.40
2023-02-06T14:18:15.582Z,0.90
2023-02-06T14:20:52.561Z,1.20
2023-02-06T14:23:45.568Z,1.30
2023-02-06T14:26:45.851Z,1.10
2023-02-06T14:32:51.206Z,1.02
2023-02-06T14:35:57.260Z,1.40
2023-02-06T14:39:09.675Z,0.77
2023-02-06T14:41:39.798Z,1.38
2023-02-06T14:44:20.334Z,1.53
2023-02-06T14:46:47.687Z,0.95
2023-02-06T14:49:18.911Z,1.23
2023-02-06T14:51:50.625Z,1.88
2023-02-06T14:54:34.262Z,1.10
2023-02-06T14:57:21.067Z,1.60
2023-02-06T15:00:23.203Z,1.30
2023-02-06T15:03:17.719Z,1.13
2023-02-06T15:06:14.682Z,1.40
2023-02-06T15:08:51.012Z,1.00
2023-02-06T15:11:32.470Z,1.70
2023-02-06T15:14:07.238Z,2.40
2023-02-06T15:16:51.018Z,1.70
2023-02-06T15:19:27.739Z,3.03
2023-02-06T15:22:17.254Z,2.67
2023-02-06T15:24:52.992Z,2.70
2023-02-06T15:27:57.681Z,1.85
2023-02-06T15:30:44.116Z,1.40
2023-02-06T15:34:26.005Z,0.98
2023-02-06T15:36:30.843Z,0.98
2023-02-06T15:39:02.871Z,0.77
2023-02-06T15:41:32.707Z,1.40
2023-02-06T15:44:40.451Z,0.93
2023-02-06T15:47:14.013Z,0.75
2023-02-06T15:50:07.478Z,0.90
2023-02-06T15:52:42.888Z,0.90
2023-02-06T15:55:33.239Z,1.85
2023-02-06T15:58:06.277Z,1.35
2023-02-06T16:00:38.235Z,3.47
2023-02-06T16:03:21.711Z,1.70
2023-02-06T16:05:53.424Z,1.10
2023-02-06T16:08:30.877Z,2.17
2023-02-06T16:11:54.178Z,2.33
2023-02-06T16:15:08.394Z,2.10
2023-02-06T16:17:43.637Z,2.10
2023-02-06T16:20:52.480Z,2.90
2023-02-06T16:23:53.052Z,2.08
2023-02-06T16:27:20.226Z,2.05
2023-02-06T16:30:09.309Z,2.13
2023-02-06T16:32:56.660Z,2.17
2023-02-06T16:36:05.212Z,2.87
2023-02-06T16:39:03.699Z,2.00
2023-02-06T16:45:31.491Z,2.53
2023-02-06T16:48:18.489Z,2.30
2023-02-06T16:51:31.664Z,3.10
2023-02-06T16:54:09.631Z,2.35
2023-02-06T17:02:03.425Z,2.28
2023-02-06T17:04:58.180Z,2.63
2023-02-06T17:09:37.840Z,2.00
2023-02-06T17:21:27.470Z,3.42
2023-02-06T20:30:41.873Z,7.50
2023-02-06T20:37:46.356Z,7.35
2023-02-06T21:08:21.033Z,7.88
2023-02-06T21:15:21.312Z,8.02
2023-02-06T21:25:08.694Z,10.20
2023-02-06T21:28:48.617Z,9.38
2023-02-06T21:41:34.529Z,9.68
2023-02-06T21:56:04.287Z,5.97
2023-02-06T21:58:49.126Z,7.35
2023-02-06T22:01:43.501Z,7.90
2023-02-06T22:05:24.812Z,7.10
2023-02-06T22:48:28.561Z,9.10
2023-02-06T22:51:52.632Z,10.43
2023-02-06T23:03:29.467Z,8.90
2023-02-06T23:31:33.276Z,9.45
2023-02-06T23:34:00.839Z,9.25
2023-02-06T23:36:40.372Z,9.82
2023-02-06T23:39:18.613Z,10.70
2023-02-06T23:41:54.660Z,10.15
2023-02-06T23:48:03.006Z,9.07
2023-02-06T23:50:56.613Z,9.20
2023-02-06T23:53:53.037Z,9.47
2023-02-06T23:57:01.787Z,9.25
